createdAt,value
2023-03-24T10:16:23.000Z,997.47
2023-03-24T10:31:23.644Z,997.41
2023-03-24T10:46:24.541Z,997.65
2023-03-24T11:01:24.393Z,997.67
2023-03-24T11:16:25.355Z,997.88
2023-03-24T11:31:26.135Z,997.87
2023-03-24T11:46:26.159Z,997.87
2023-03-24T12:01:26.376Z,998.01
2023-03-24T12:16:26.863Z,997.94
2023-03-24T12:31:27.713Z,998.35
2023-03-24T12:46:37.084Z,997.93
2023-03-24T13:01:33.690Z,998.33
2023-03-24T13:16:34.562Z,998.41
2023-03-24T13:31:34.584Z,998.35
2023-03-24T13:46:34.810Z,998.96
2023-03-24T14:01:35.493Z,999.01
2023-03-24T14:16:36.369Z,999.13
2023-03-24T14:31:36.639Z,998.38
2023-03-24T14:46:37.047Z,998.42
2023-03-24T15:01:37.857Z,998.29
2023-03-24T15:16:38.239Z,998.52
2023-03-24T15:31:39.512Z,998.67
2023-03-24T15:46:41.268Z,998.81
2023-03-24T16:01:44.682Z,998.81
2023-03-24T16:16:46.468Z,998.84
2023-03-24T16:31:46.721Z,998.76
2023-03-24T16:46:47.064Z,998.96
2023-03-24T17:01:47.516Z,999.17
2023-03-24T17:16:48.652Z,999.39
2023-03-24T17:31:48.519Z,999.49
2023-03-24T17:46:48.905Z,999.64
2023-03-24T18:01:48.961Z,999.62
2023-03-24T18:16:49.610Z,999.75
2023-03-24T18:31:50.487Z,999.81
2023-03-24T18:46:51.182Z,999.83
2023-03-24T19:01:52.220Z,1000.35
2023-03-24T19:16:52.971Z,999.92
2023-03-24T19:31:53.233Z,999.85
2023-03-24T19:46:53.795Z,1000.24
2023-03-24T20:01:53.776Z,1000.24
2023-03-24T20:16:54.932Z,1000.11
2023-03-24T20:31:55.790Z,999.92
2023-03-24T20:46:55.874Z,999.98
2023-03-24T21:01:56.694Z,1000.26
2023-03-24T21:16:57.590Z,1000.21
2023-03-24T21:31:57.596Z,1000.38
2023-03-24T21:46:57.860Z,1000.45
2023-03-24T22:01:57.957Z,1000.34
2023-03-24T22:16:58.408Z,1000.34
2023-03-24T22:31:58.849Z,1000.38
2023-03-24T22:47:01.345Z,1000.20
2023-03-24T23:02:09.400Z,999.91
2023-03-24T23:17:07.366Z,1000.07
2023-03-24T23:32:07.534Z,999.97
2023-03-24T23:47:07.676Z,999.97
